createdAt,value
2017-12-13T00:01:11.577Z,95772
2017-12-13T00:03:46.743Z,95776
2017-12-13T00:06:16.344Z,95771
2017-12-13T00:08:46.632Z,95781
2017-12-13T00:11:18.041Z,95777
2017-12-13T00:13:47.586Z,95775
2017-12-13T00:16:17.286Z,95767
2017-12-13T00:18:47.404Z,95773
2017-12-13T00:21:16.733Z,95775
2017-12-13T00:23:45.892Z,95771
2017-12-13T00:26:21.081Z,95775
2017-12-13T00:28:51.910Z,95775
2017-12-13T00:31:23.996Z,95774
2017-12-13T00:33:57.540Z,95837
2017-12-13T00:36:35.059Z,95767
2017-12-13T00:39:05.501Z,95772
2017-12-13T00:41:35.100Z,95772
2017-12-13T00:44:04.527Z,95765
2017-12-13T00:46:34.138Z,95774
2017-12-13T00:49:04.384Z,95775
2017-12-13T00:51:34.168Z,95767
2017-12-13T00:54:04.322Z,95781
2017-12-13T00:56:33.880Z,95772
2017-12-13T00:59:02.785Z,95776
2017-12-13T01:01:32.980Z,95788
2017-12-13T01:04:07.798Z,95773
2017-12-13T01:06:36.470Z,95776
2017-12-13T01:09:05.771Z,95788
2017-12-13T01:11:36.178Z,95788
2017-12-13T01:14:06.936Z,95788
2017-12-13T01:16:36.940Z,95786
2017-12-13T01:19:05.670Z,95787
2017-12-13T01:21:34.907Z,95790
2017-12-13T01:24:04.206Z,95783
2017-12-13T01:26:33.984Z,95788
2017-12-13T01:29:10.114Z,95793
2017-12-13T01:31:39.027Z,95791
2017-12-13T01:34:14.305Z,95786
2017-12-13T01:36:51.184Z,95787
2017-12-13T01:39:22.983Z,95809
2017-12-13T01:41:51.682Z,95779
2017-12-13T01:44:26.572Z,95782
2017-12-13T01:46:55.267Z,95779
2017-12-13T01:49:23.938Z,95789
2017-12-13T01:51:52.607Z,95792
2017-12-13T01:54:22.051Z,95781
2017-12-13T01:56:50.729Z,95799
2017-12-13T01:59:26.396Z,95793
2017-12-13T02:01:56.014Z,95794
2017-12-13T02:04:31.376Z,95804
2017-12-13T02:07:04.533Z,95804
2017-12-13T02:09:36.079Z,95796
2017-12-13T02:12:07.003Z,95813
2017-12-13T02:14:40.224Z,95806
2017-12-13T02:17:10.819Z,95812
2017-12-13T02:19:44.558Z,95813
2017-12-13T02:22:14.258Z,95814
2017-12-13T02:24:45.992Z,95818
2017-12-13T02:27:19.028Z,95803
2017-12-13T02:29:49.098Z,95806
2017-12-13T02:32:24.344Z,95816
2017-12-13T02:34:53.604Z,95811
2017-12-13T02:37:45.491Z,95803
2017-12-13T02:40:34.931Z,95798
2017-12-13T02:43:07.217Z,95800
2017-12-13T02:45:40.753Z,95787
2017-12-13T02:48:12.039Z,95792
2017-12-13T02:50:44.036Z,95794
2017-12-13T02:53:18.309Z,95793
2017-12-13T02:55:55.513Z,95792
2017-12-13T03:01:40.803Z,95790
2017-12-13T03:07:44.060Z,95791
2017-12-13T03:10:13.683Z,95787
2017-12-13T03:12:45.643Z,95778
2017-12-13T03:15:17.764Z,95776
2017-12-13T03:17:50.823Z,95779
2017-12-13T03:20:24.065Z,95775
2017-12-13T03:22:59.656Z,95775
2017-12-13T03:25:31.915Z,95778
2017-12-13T03:28:10.205Z,95771
2017-12-13T03:30:41.429Z,95764
2017-12-13T03:33:25.011Z,95774
2017-12-13T03:35:58.792Z,95775
2017-12-13T03:38:30.028Z,95786
2017-12-13T03:41:03.258Z,95774
2017-12-13T03:43:38.524Z,95779
2017-12-13T03:46:17.692Z,95776
2017-12-13T03:48:46.510Z,95767
2017-12-13T03:51:24.430Z,95776
2017-12-13T03:53:54.926Z,95761
2017-12-13T03:56:29.744Z,95764
2017-12-13T03:59:01.820Z,95764
2017-12-13T04:01:41.984Z,95767
2017-12-13T04:04:11.326Z,95764
2017-12-13T04:06:46.404Z,95749
2017-12-13T04:09:16.696Z,95744
2017-12-13T04:11:46.056Z,95751
2017-12-13T04:14:15.241Z,95753
2017-12-13T04:16:51.872Z,95758
2017-12-13T04:19:30.613Z,95752
2017-12-13T04:22:04.357Z,95756
2017-12-13T04:24:33.207Z,95761
2017-12-13T04:27:11.605Z,95755
2017-12-13T04:29:41.251Z,95760
2017-12-13T04:32:13.748Z,95750
2017-12-13T04:34:44.875Z,95741
2017-12-13T04:37:17.140Z,95746
2017-12-13T04:39:47.136Z,95746
2017-12-13T04:42:16.458Z,95742
2017-12-13T04:44:46.034Z,95757
2017-12-13T04:47:15.396Z,95749
2017-12-13T04:49:45.393Z,95762
2017-12-13T04:52:21.344Z,95749
2017-12-13T04:54:54.164Z,95752
2017-12-13T04:57:26.160Z,95739
2017-12-13T05:11:59.860Z,95743
2017-12-13T08:08:11.901Z,95799
2017-12-13T08:13:58.803Z,95639
2017-12-13T08:16:28.212Z,95632
2017-12-13T08:19:05.756Z,95624
2017-12-13T08:21:40.640Z,95624
2017-12-13T08:24:15.563Z,95616
2017-12-13T08:26:44.251Z,95622
2017-12-13T08:29:19.035Z,95626
2017-12-13T08:31:54.749Z,95618
2017-12-13T08:34:23.438Z,95606
2017-12-13T08:36:52.119Z,95614
2017-12-13T08:39:27.047Z,95612
2017-12-13T08:42:01.819Z,95601
2017-12-13T08:44:30.539Z,95610
2017-12-13T08:46:59.226Z,95608
2017-12-13T08:49:27.913Z,95605
2017-12-13T08:52:02.843Z,95607
2017-12-13T08:54:37.777Z,95599
2017-12-13T08:57:08.102Z,95599
2017-12-13T08:59:42.878Z,95587
2017-12-13T09:02:11.595Z,95585
2017-12-13T09:04:46.487Z,95574
2017-12-13T09:07:17.051Z,95565
2017-12-13T09:09:45.755Z,95567
2017-12-13T09:12:14.475Z,95587
2017-12-13T09:14:49.287Z,95556
2017-12-13T09:17:24.211Z,95559
2017-12-13T09:19:58.990Z,95535
2017-12-13T09:22:33.787Z,95539
2017-12-13T09:25:09.077Z,95534
2017-12-13T09:27:37.827Z,95537
2017-12-13T09:30:12.764Z,95518
2017-12-13T09:32:42.234Z,95518
2017-12-13T09:35:17.158Z,95520
2017-12-13T09:37:51.959Z,95503
2017-12-13T09:40:20.664Z,95503
2017-12-13T09:42:49.367Z,95493
2017-12-13T09:45:18.055Z,95481
2017-12-13T09:47:52.851Z,95472
2017-12-13T09:50:21.544Z,95466
2017-12-13T09:52:50.245Z,95458
2017-12-13T09:55:25.159Z,95446
2017-12-13T09:58:00.822Z,95444
2017-12-13T10:00:29.502Z,95437
2017-12-13T10:02:58.238Z,95428
2017-12-13T10:05:27.747Z,95423
2017-12-13T10:08:02.659Z,95441
2017-12-13T10:10:37.582Z,95408
2017-12-13T10:13:12.479Z,95399
2017-12-13T10:15:41.218Z,95391
2017-12-13T10:18:10.675Z,95380
2017-12-13T10:20:39.364Z,95378
2017-12-13T10:23:08.058Z,95372
2017-12-13T10:25:36.745Z,95354
2017-12-13T10:28:05.449Z,95355
2017-12-13T10:30:34.974Z,95353
2017-12-13T10:33:04.464Z,95340
2017-12-13T10:35:33.144Z,95336
2017-12-13T10:38:01.847Z,95325
2017-12-13T10:40:37.589Z,95316
2017-12-13T10:43:13.014Z,95316
2017-12-13T10:45:42.659Z,95307
2017-12-13T10:48:12.021Z,95305
2017-12-13T10:50:48.077Z,95296
2017-12-13T10:53:18.936Z,95296
2017-12-13T10:55:50.128Z,95279
2017-12-13T10:58:18.988Z,95283
2017-12-13T11:00:47.728Z,95272
2017-12-13T11:03:23.390Z,95266
2017-12-13T11:05:52.344Z,95257
2017-12-13T11:08:28.093Z,95253
2017-12-13T11:10:56.899Z,95248
2017-12-13T11:13:31.966Z,95243
2017-12-13T11:16:00.856Z,95245
2017-12-13T11:18:35.918Z,95238
2017-12-13T11:21:05.014Z,95254
2017-12-13T11:23:34.290Z,95254
2017-12-13T11:26:03.574Z,95250
2017-12-13T11:28:41.029Z,95238
2017-12-13T11:31:11.224Z,95243
2017-12-13T11:33:46.849Z,95252
2017-12-13T11:36:16.584Z,95244
2017-12-13T11:41:25.747Z,95238
2017-12-13T11:43:54.451Z,95250
2017-12-13T11:46:30.146Z,95231
2017-12-13T11:48:58.844Z,95227
2017-12-13T11:51:28.294Z,95226
2017-12-13T11:53:56.991Z,95219
2017-12-13T11:56:31.787Z,95210
2017-12-13T11:59:00.493Z,95201
2017-12-13T12:01:35.395Z,95185
2017-12-13T12:04:04.118Z,95175
2017-12-13T12:06:32.795Z,95217
2017-12-13T12:09:01.482Z,95163
2017-12-13T12:11:30.179Z,95163
2017-12-13T12:14:00.611Z,95149
2017-12-13T12:16:35.504Z,95146
2017-12-13T12:19:11.178Z,95140
2017-12-13T12:21:46.090Z,95131
2017-12-13T12:24:14.798Z,95123
2017-12-13T12:26:43.504Z,95111
2017-12-13T12:29:12.187Z,95110
2017-12-13T12:31:40.892Z,95105
2017-12-13T12:34:15.788Z,95087
2017-12-13T12:36:51.331Z,95088
2017-12-13T12:39:26.147Z,95077
2017-12-13T12:41:54.854Z,95065
2017-12-13T12:44:23.898Z,95076
2017-12-13T12:47:00.325Z,95060
2017-12-13T12:49:34.741Z,95040
2017-12-13T12:52:04.444Z,95043
2017-12-13T12:54:33.515Z,95038
2017-12-13T12:57:07.157Z,95038
2017-12-13T12:59:43.008Z,95041
2017-12-13T13:02:13.348Z,95053
2017-12-13T13:04:51.022Z,95022
2017-12-13T13:07:20.028Z,95006
2017-12-13T13:09:48.767Z,95001
2017-12-13T13:12:17.712Z,94999
2017-12-13T13:14:50.763Z,94989
2017-12-13T13:17:20.426Z,94986
2017-12-13T13:19:50.035Z,94982
2017-12-13T13:22:21.164Z,94978
2017-12-13T13:24:56.837Z,94961
2017-12-13T13:27:32.524Z,94980
2017-12-13T13:30:01.207Z,94966
2017-12-13T13:32:29.894Z,94956
2017-12-13T13:34:58.564Z,94947
2017-12-13T13:37:27.250Z,94956
2017-12-13T13:40:03.131Z,94947
2017-12-13T13:42:31.893Z,94928
2017-12-13T13:45:07.432Z,94919
2017-12-13T13:47:36.959Z,94912
2017-12-13T13:50:05.637Z,94895
2017-12-13T13:52:34.328Z,94895
2017-12-13T13:55:09.397Z,94904
2017-12-13T13:57:44.209Z,94894
2017-12-13T14:00:13.056Z,94881
2017-12-13T14:02:41.847Z,94875
2017-12-13T14:05:14.783Z,94877
2017-12-13T14:07:44.594Z,94879
2017-12-13T14:10:13.458Z,94873
2017-12-13T14:12:42.576Z,94864
2017-12-13T14:15:12.440Z,94864
2017-12-13T14:17:41.394Z,94859
2017-12-13T14:20:10.487Z,94858
2017-12-13T14:22:39.677Z,94864
2017-12-13T14:25:11.057Z,94858
2017-12-13T14:27:41.592Z,94852
2017-12-13T14:30:11.324Z,94852
2017-12-13T14:32:41.109Z,94841
2017-12-13T14:35:18.043Z,94831
2017-12-13T14:37:47.822Z,94836
2017-12-13T14:40:23.715Z,94830
2017-12-13T14:42:53.781Z,94820
2017-12-13T14:45:23.238Z,94808
2017-12-13T14:47:54.165Z,94812
2017-12-13T14:50:29.190Z,94801
2017-12-13T14:52:58.502Z,94791
2017-12-13T14:55:27.979Z,94789
2017-12-13T14:58:05.254Z,94779
2017-12-13T15:00:34.964Z,94777
2017-12-13T15:03:11.526Z,94771
2017-12-13T15:05:41.829Z,94770
2017-12-13T15:08:11.956Z,94777
2017-12-13T15:10:41.746Z,94756
2017-12-13T15:13:11.168Z,94753
2017-12-13T15:15:40.208Z,94752
2017-12-13T15:18:15.755Z,94735
2017-12-13T15:20:45.593Z,94739
2017-12-13T15:23:22.102Z,94740
2017-12-13T15:25:51.936Z,94741
2017-12-13T15:28:20.656Z,94753
2017-12-13T15:30:49.412Z,94746
2017-12-13T15:33:24.386Z,94752
2017-12-13T15:36:03.024Z,94744
2017-12-13T15:38:41.937Z,94751
2017-12-13T15:41:17.724Z,94739
2017-12-13T15:43:56.842Z,94728
2017-12-13T19:16:09.144Z,94443
2017-12-13T19:18:51.245Z,94423
2017-12-13T19:21:20.561Z,94406
2017-12-13T19:23:56.944Z,94400
2017-12-13T19:26:33.204Z,94393
2017-12-13T19:29:05.283Z,94389
2017-12-13T19:31:48.195Z,94362
2017-12-13T19:34:25.030Z,94366
2017-12-13T19:43:05.869Z,94298
2017-12-13T19:45:44.905Z,94267
2017-12-13T19:48:33.045Z,94297
2017-12-13T19:51:11.072Z,94321
2017-12-13T19:53:50.752Z,94333
2017-12-13T19:56:24.999Z,94333
2017-12-13T19:58:53.695Z,94312
2017-12-13T20:01:35.166Z,94311
2017-12-13T20:14:21.005Z,94288
2017-12-13T20:20:00.577Z,94264
2017-12-13T20:22:35.955Z,94267
2017-12-13T20:25:05.543Z,94252
2017-12-13T20:27:40.920Z,94244
2017-12-13T20:30:15.040Z,94229
2017-12-13T20:33:01.237Z,94211
2017-12-13T20:36:11.407Z,94226
2017-12-13T20:38:54.391Z,94217
2017-12-13T20:41:30.552Z,94216
2017-12-13T20:44:18.632Z,94198
2017-12-13T20:49:54.396Z,94195
2017-12-13T20:52:23.164Z,94180
2017-12-13T20:54:57.889Z,94155
2017-12-13T20:57:26.662Z,94159
2017-12-13T21:00:01.638Z,94156
2017-12-13T21:02:37.120Z,94157
2017-12-13T21:05:14.139Z,94158
2017-12-13T21:07:48.899Z,94156
2017-12-13T21:10:21.289Z,94127
2017-12-13T21:12:50.381Z,94105
2017-12-13T21:15:28.206Z,94149
2017-12-13T21:17:57.883Z,94083
2017-12-13T21:20:27.463Z,94073
2017-12-13T21:22:56.146Z,94062
2017-12-13T21:25:24.836Z,94041
2017-12-13T21:27:53.580Z,94028
2017-12-13T21:30:22.296Z,94021
2017-12-13T21:32:51.637Z,94023
2017-12-13T21:35:33.544Z,94009
2017-12-13T21:41:23.131Z,94020
2017-12-13T21:44:04.707Z,94023
2017-12-13T21:58:28.912Z,93951
2017-12-13T22:03:39.377Z,93922
2017-12-13T22:06:09.347Z,93923
2017-12-13T22:08:52.058Z,93941
2017-12-13T22:11:20.756Z,93945
2017-12-13T22:13:51.064Z,93938
2017-12-13T22:16:19.763Z,93935
2017-12-13T22:18:48.803Z,93929
2017-12-13T22:21:23.900Z,93923
2017-12-13T22:24:03.143Z,93905
2017-12-13T22:26:36.729Z,93908
2017-12-13T22:29:27.343Z,93891
2017-12-13T22:32:04.119Z,93893
2017-12-13T22:34:32.968Z,93895
2017-12-13T22:37:01.644Z,93899
2017-12-13T22:39:30.332Z,93888
2017-12-13T22:42:04.690Z,93880
2017-12-13T22:44:34.279Z,93888
2017-12-13T22:47:02.966Z,93867
2017-12-13T22:49:33.613Z,93873
2017-12-13T22:52:03.320Z,93867
2017-12-13T22:54:32.008Z,93863
2017-12-13T22:57:00.704Z,93855
2017-12-13T22:59:35.690Z,93841
2017-12-13T23:02:11.550Z,93833
2017-12-13T23:04:46.487Z,93820
2017-12-13T23:07:15.169Z,93835
2017-12-13T23:09:44.829Z,93821
2017-12-13T23:12:13.498Z,93826
2017-12-13T23:14:48.324Z,93812
2017-12-13T23:17:17.888Z,93810
2017-12-13T23:19:46.584Z,93806
2017-12-13T23:22:15.266Z,93806
2017-12-13T23:24:43.962Z,93807
2017-12-13T23:27:12.677Z,93810
2017-12-13T23:29:47.515Z,93810
2017-12-13T23:32:16.194Z,93804
2017-12-13T23:34:44.882Z,93810
2017-12-13T23:37:13.583Z,93800
2017-12-13T23:39:42.267Z,93799
2017-12-13T23:42:11.738Z,93777
2017-12-13T23:44:46.153Z,93775
2017-12-13T23:47:14.839Z,93782
2017-12-13T23:49:43.522Z,93791
2017-12-13T23:52:12.218Z,93777
2017-12-13T23:54:40.908Z,93780
2017-12-13T23:57:09.618Z,93779
2017-12-13T23:59:43.896Z,93785
